Time;durP1;ratioP1;P1;durP2;ratioP2;P2;SDS_P1;SDS_P2;PMS_P1;PMS_P2;Temp;Humidity;BMP_temperature;BMP_pressure;BME280_temperature;BME280_humidity;BME280_pressure;Samples;Min_cycle;Max_cycle;Signal;HPM_P1;HPM_P2
2022/03/13 00:00:37;;;;;;;1.05;0.70;;;;;;;5.63;100.00;97789.78;5043604;28;20102;-87
2022/03/13 00:03:12;;;;;;;2.63;0.73;;;;;;;5.63;100.00;97776.44;5028298;28;20040;-86
2022/03/13 00:05:41;;;;;;;1.73;0.70;;;;;;;5.65;100.00;97758.38;5077632;28;20028;-89
2022/03/13 00:08:26;;;;;;;0.52;0.52;;;;;;;5.66;100.00;97751.19;5063718;28;20581;-88
2022/03/13 00:10:59;;;;;;;1.02;0.77;;;;;;;5.67;100.00;97747.53;5054149;28;20024;-87
2022/03/13 00:13:30;;;;;;;0.70;0.70;;;;;;;5.66;100.00;97744.06;5051752;28;20025;-89
2022/03/13 00:15:57;;;;;;;0.70;0.70;;;;;;;5.55;100.00;97719.94;5067935;28;20059;-91
2022/03/13 00:18:23;;;;;;;0.40;0.40;;;;;;;5.59;100.00;97737.94;5065245;28;20309;-88
2022/03/13 00:20:50;;;;;;;0.95;0.75;;;;;;;5.64;100.00;97747.97;5064331;28;20024;-87
2022/03/13 00:23:16;;;;;;;1.83;0.95;;;;;;;5.62;100.00;97742.84;5044533;28;20119;-88
2022/03/13 00:25:42;;;;;;;2.85;1.02;;;;;;;5.59;100.00;97729.94;5049024;28;20032;-89
2022/03/13 00:28:08;;;;;;;3.88;0.60;;;;;;;5.63;100.00;97739.13;5048293;28;20095;-87
2022/03/13 00:30:35;;;;;;;0.50;0.50;;;;;;;5.63;100.00;97730.31;5061410;28;20162;-88
2022/03/13 00:33:02;;;;;;;0.50;0.50;;;;;;;5.68;100.00;97736.63;5050871;28;20028;-87
2022/03/13 00:35:28;;;;;;;0.98;0.60;;;;;;;5.71;100.00;97744.19;5064102;28;20052;-86
2022/03/13 00:37:54;;;;;;;0.68;0.68;;;;;;;5.73;100.00;97731.47;5043587;28;20071;-87
2022/03/13 00:40:20;;;;;;;0.43;0.43;;;;;;;5.76;100.00;97722.19;5034882;28;20048;-86
2022/03/13 00:42:46;;;;;;;0.50;0.50;;;;;;;5.74;100.00;97710.94;5033119;28;20447;-87
2022/03/13 00:45:13;;;;;;;0.40;0.40;;;;;;;5.80;100.00;97722.59;5047686;28;20471;-87
2022/03/13 00:47:39;;;;;;;0.40;0.40;;;;;;;5.80;100.00;97736.75;5047972;28;20039;-87
2022/03/13 00:50:05;;;;;;;2.03;0.60;;;;;;;5.77;100.00;97729.19;5068120;28;20489;-86
2022/03/13 00:52:30;;;;;;;0.40;0.40;;;;;;;5.80;100.00;97723.41;5039029;28;20470;-86
2022/03/13 00:54:56;;;;;;;0.57;0.57;;;;;;;5.82;100.00;97721.34;5040897;28;20045;-88
2022/03/13 00:57:21;;;;;;;0.40;0.40;;;;;;;5.80;100.00;97706.59;5042909;28;20036;-87
2022/03/13 00:59:47;;;;;;;0.40;0.40;;;;;;;5.80;100.00;97704.75;5057738;28;20044;-86
2022/03/13 01:02:13;;;;;;;0.50;0.50;;;;;;;5.81;100.00;97703.69;5044674;28;20420;-87
2022/03/13 01:04:39;;;;;;;0.40;0.40;;;;;;;5.84;100.00;97707.78;5047216;28;20024;-85
2022/03/13 01:07:05;;;;;;;0.40;0.40;;;;;;;5.89;100.00;97694.59;5064718;28;20367;-86
2022/03/13 01:09:30;;;;;;;0.40;0.40;;;;;;;5.91;100.00;97703.22;5055029;28;20082;-86
2022/03/13 01:11:56;;;;;;;0.40;0.40;;;;;;;5.97;100.00;97690.88;5049059;28;20025;-87
2022/03/13 01:14:23;;;;;;;0.40;0.40;;;;;;;5.91;100.00;97690.69;5062789;28;20040;-88
2022/03/13 01:17:01;;;;;;;1.20;0.68;;;;;;;5.83;100.00;97680.31;5065479;28;20032;-88
2022/03/13 01:19:30;;;;;;;0.90;0.90;;;;;;;5.90;100.00;97683.72;5032954;28;20024;-88
2022/03/13 01:21:56;;;;;;;5.68;1.60;;;;;;;5.84;100.00;97665.94;5031247;28;20044;-87
2022/03/13 01:24:30;;;;;;;0.40;0.40;;;;;;;5.88;100.00;97666.31;5046643;28;20032;-87
2022/03/13 01:27:00;;;;;;;0.50;0.50;;;;;;;5.91;100.00;97666.69;5060642;28;20075;-85
2022/03/13 01:29:25;;;;;;;0.40;0.40;;;;;;;5.86;100.00;97647.06;5031490;28;20037;-86
2022/03/13 01:31:51;;;;;;;0.40;0.40;;;;;;;5.89;100.00;97655.41;5044987;28;20036;-87
2022/03/13 01:34:39;;;;;;;0.40;0.40;;;;;;;5.91;100.00;97655.22;5062114;28;20035;-88
2022/03/13 01:37:13;;;;;;;0.50;0.50;;;;;;;5.92;100.00;97648.81;5048297;28;20122;-86
2022/03/13 01:39:39;;;;;;;0.40;0.40;;;;;;;5.86;100.00;97645.19;5066030;28;20025;-85
2022/03/13 01:42:06;;;;;;;0.40;0.40;;;;;;;5.82;100.00;97630.69;5051815;28;20036;-86
2022/03/13 01:44:31;;;;;;;1.58;0.70;;;;;;;5.75;100.00;97623.81;5029405;28;20270;-87
2022/03/13 01:46:57;;;;;;;0.40;0.40;;;;;;;5.87;100.00;97646.81;5068119;28;20032;-85
2022/03/13 01:49:24;;;;;;;0.40;0.40;;;;;;;5.88;100.00;97639.66;5054864;28;20032;-86
2022/03/13 01:51:50;;;;;;;0.40;0.40;;;;;;;5.81;100.00;97621.06;5037422;28;20028;-86
2022/03/13 01:54:16;;;;;;;0.40;0.40;;;;;;;5.80;100.00;97615.94;5074703;28;20024;-86
2022/03/13 01:56:42;;;;;;;0.40;0.40;;;;;;;5.87;100.00;97616.69;5064725;28;20078;-86
2022/03/13 01:59:09;;;;;;;0.40;0.40;;;;;;;5.88;100.00;97616.47;5051675;28;20037;-84
2022/03/13 02:01:35;;;;;;;0.50;0.50;;;;;;;5.86;100.00;97599.06;5067854;28;20028;-86
2022/03/13 02:04:01;;;;;;;0.63;0.60;;;;;;;5.92;100.00;97606.16;5062186;28;20418;-85
2022/03/13 02:06:27;;;;;;;0.40;0.40;;;;;;;5.94;100.00;97599.59;5055005;28;20043;-85
2022/03/13 02:08:54;;;;;;;0.85;0.40;;;;;;;5.96;100.00;97596.72;5051262;28;20028;-85
2022/03/13 02:11:38;;;;;;;0.57;0.45;;;;;;;5.97;100.00;97579.66;5058452;28;20025;-84
2022/03/13 02:14:05;;;;;;;0.40;0.40;;;;;;;5.93;100.00;97581.97;5077803;28;20055;-85
2022/03/13 02:16:31;;;;;;;0.45;0.45;;;;;;;5.97;100.00;97587.66;5067031;28;20048;-85
2022/03/13 02:18:57;;;;;;;4.22;0.70;;;;;;;5.98;100.00;97583.97;5052015;28;20021;-84
2022/03/13 02:21:25;;;;;;;0.40;0.40;;;;;;;6.04;100.00;97591.06;5050574;28;20119;-85
2022/03/13 02:23:51;;;;;;;0.43;0.43;;;;;;;6.08;100.00;97594.91;5029161;28;20493;-85
2022/03/13 02:26:20;;;;;;;0.40;0.40;;;;;;;5.99;100.00;97574.13;5036827;28;20081;-87
2022/03/13 02:28:53;;;;;;;0.50;0.50;;;;;;;6.04;100.00;97579.59;5046679;28;20472;-85
2022/03/13 02:31:32;;;;;;;0.50;0.50;;;;;;;5.96;100.00;97572.72;5032302;28;20278;-85
2022/03/13 02:33:59;;;;;;;0.40;0.40;;;;;;;6.03;100.00;97573.44;5062699;28;20120;-86
2022/03/13 02:36:31;;;;;;;0.50;0.50;;;;;;;5.99;100.00;97550.13;5060860;28;20269;-84
2022/03/13 02:39:00;;;;;;;2.38;0.95;;;;;;;5.87;100.00;97521.50;5058736;28;20033;-85
2022/03/13 02:41:26;;;;;;;0.40;0.40;;;;;;;6.11;100.00;97550.97;5050502;28;20476;-86
2022/03/13 02:43:56;;;;;;;3.00;0.82;;;;;;;6.05;100.00;97528.69;5050714;28;20021;-85
2022/03/13 02:46:23;;;;;;;0.80;0.50;;;;;;;6.13;100.00;97541.69;5045578;28;20477;-86
2022/03/13 02:48:51;;;;;;;0.80;0.80;;;;;;;6.19;100.00;97536.50;5075749;28;20028;-85
2022/03/13 02:51:17;;;;;;;0.50;0.50;;;;;;;6.19;100.00;97534.63;5065597;28;20025;-85
2022/03/13 02:53:43;;;;;;;0.43;0.43;;;;;;;6.22;100.00;97528.03;5031288;28;20446;-85
2022/03/13 02:56:08;;;;;;;0.50;0.50;;;;;;;6.15;100.00;97510.28;5066755;28;20029;-85
2022/03/13 02:58:34;;;;;;;1.00;0.50;;;;;;;6.21;100.00;97513.09;5053105;28;20064;-84
2022/03/13 03:01:00;;;;;;;2.38;0.80;;;;;;;6.23;100.00;97514.47;5051216;28;20020;-84
2022/03/13 03:03:27;;;;;;;0.50;0.50;;;;;;;6.26;100.00;97510.56;5063802;28;20120;-84
2022/03/13 03:05:53;;;;;;;0.40;0.40;;;;;;;6.25;100.00;97508.94;5063023;28;20028;-83
2022/03/13 03:08:19;;;;;;;4.07;0.80;;;;;;;6.26;100.00;97508.69;5043537;28;20047;-84
2022/03/13 03:10:45;;;;;;;0.40;0.40;;;;;;;6.24;100.00;97499.28;5064663;28;20064;-86
2022/03/13 03:13:13;;;;;;;0.50;0.50;;;;;;;6.28;100.00;97503.94;5031739;28;20036;-86
2022/03/13 03:15:39;;;;;;;0.50;0.50;;;;;;;6.21;100.00;97491.75;5066386;28;20484;-84
2022/03/13 03:18:06;;;;;;;0.40;0.40;;;;;;;6.30;100.00;97503.72;5031028;28;20028;-84
2022/03/13 03:20:32;;;;;;;0.50;0.50;;;;;;;6.23;100.00;97487.00;5067677;28;20032;-85
2022/03/13 03:22:58;;;;;;;0.40;0.40;;;;;;;6.29;100.00;97494.88;5050838;28;20025;-85
2022/03/13 03:25:25;;;;;;;0.40;0.40;;;;;;;6.28;100.00;97487.94;5072204;28;20037;-85
2022/03/13 03:27:52;;;;;;;0.40;0.40;;;;;;;6.30;100.00;97493.88;5031048;28;20032;-84
2022/03/13 03:30:22;;;;;;;0.40;0.40;;;;;;;6.27;100.00;97475.66;5029994;28;20059;-82
2022/03/13 03:32:48;;;;;;;0.40;0.40;;;;;;;6.30;100.00;97479.72;5065046;28;20082;-84
2022/03/13 03:35:16;;;;;;;0.40;0.40;;;;;;;6.31;100.00;97482.13;5051478;28;20090;-83
2022/03/13 03:37:43;;;;;;;0.40;0.40;;;;;;;6.29;100.00;97470.06;5063496;28;20036;-83
2022/03/13 03:40:10;;;;;;;0.40;0.40;;;;;;;6.23;100.00;97450.47;5054093;28;20082;-84
2022/03/13 03:42:36;;;;;;;0.50;0.50;;;;;;;6.28;100.00;97458.59;5067880;28;20040;-85
2022/03/13 03:45:02;;;;;;;0.40;0.40;;;;;;;6.34;100.00;97451.50;5065402;28;20405;-84
2022/03/13 03:47:28;;;;;;;0.50;0.50;;;;;;;6.35;100.00;97453.13;5049386;28;20042;-86
2022/03/13 03:49:54;;;;;;;1.00;0.50;;;;;;;6.32;100.00;97450.94;5066088;28;20036;-84
2022/03/13 03:52:19;;;;;;;0.40;0.40;;;;;;;6.35;100.00;97458.47;5053805;28;20050;-85
2022/03/13 03:54:45;;;;;;;0.40;0.40;;;;;;;6.32;100.00;97454.41;5069194;28;20119;-85
2022/03/13 03:57:10;;;;;;;0.98;0.50;;;;;;;6.27;100.00;97443.63;5066861;28;20497;-85
2022/03/13 03:59:36;;;;;;;0.57;0.57;;;;;;;6.34;100.00;97447.00;5065278;28;20024;-84
2022/03/13 04:02:02;;;;;;;0.40;0.40;;;;;;;6.30;100.00;97440.50;5032473;28;22228;-85
2022/03/13 04:04:27;;;;;;;0.40;0.40;;;;;;;6.31;100.00;97446.66;5033698;28;20040;-84
2022/03/13 04:06:56;;;;;;;1.98;0.50;;;;;;;6.36;100.00;97454.78;5048714;28;20081;-86
2022/03/13 04:09:24;;;;;;;0.50;0.50;;;;;;;6.29;100.00;97446.84;5028531;28;20024;-86
2022/03/13 04:11:52;;;;;;;0.40;0.40;;;;;;;6.20;100.00;97444.78;5031016;28;20501;-84
2022/03/13 04:14:20;;;;;;;0.80;0.80;;;;;;;6.24;100.00;97456.59;5065015;28;20036;-84
2022/03/13 04:16:46;;;;;;;0.40;0.40;;;;;;;6.24;100.00;97457.41;5061776;28;20035;-85
2022/03/13 04:19:12;;;;;;;0.50;0.50;;;;;;;6.11;100.00;97437.09;5047733;28;20036;-85
2022/03/13 04:21:42;;;;;;;0.43;0.43;;;;;;;6.19;100.00;97459.94;5048123;28;20037;-85
2022/03/13 04:24:09;;;;;;;0.50;0.50;;;;;;;6.20;100.00;97460.78;5053162;28;20032;-84
2022/03/13 04:26:34;;;;;;;0.40;0.40;;;;;;;6.19;100.00;97461.81;5067815;28;20519;-84
2022/03/13 04:29:00;;;;;;;0.55;0.55;;;;;;;6.19;100.00;97459.13;5066146;28;20028;-84
2022/03/13 04:31:26;;;;;;;0.40;0.40;;;;;;;6.18;100.00;97474.34;5068615;28;20040;-84
2022/03/13 04:33:52;;;;;;;0.50;0.50;;;;;;;6.11;100.00;97455.78;5064148;28;20020;-84
2022/03/13 04:36:21;;;;;;;0.40;0.40;;;;;;;6.16;100.00;97482.56;5039336;28;21723;-83
2022/03/13 04:38:46;;;;;;;0.40;0.40;;;;;;;6.19;100.00;97494.63;5044164;28;20029;-84
2022/03/13 04:41:12;;;;;;;0.50;0.50;;;;;;;6.20;100.00;97490.13;5048437;28;20111;-85
2022/03/13 04:43:38;;;;;;;0.40;0.40;;;;;;;6.19;100.00;97493.81;5031147;28;20123;-84
2022/03/13 04:46:04;;;;;;;0.40;0.40;;;;;;;6.23;100.00;97503.00;5066486;28;20479;-84
2022/03/13 04:48:32;;;;;;;0.40;0.40;;;;;;;6.25;100.00;97511.59;5040171;28;20051;-83
2022/03/13 04:50:59;;;;;;;0.40;0.40;;;;;;;6.19;100.00;97502.63;5065820;28;20021;-86
2022/03/13 04:53:25;;;;;;;0.40;0.40;;;;;;;6.21;100.00;97507.75;5049466;28;20029;-84
2022/03/13 04:55:51;;;;;;;0.50;0.50;;;;;;;6.25;100.00;97525.75;5067328;28;20090;-85
2022/03/13 04:58:18;;;;;;;0.40;0.40;;;;;;;6.23;100.00;97527.81;5046581;28;20072;-86
2022/03/13 05:00:47;;;;;;;0.47;0.47;;;;;;;6.23;100.00;97535.03;5045767;28;20120;-86
2022/03/13 05:03:15;;;;;;;0.50;0.50;;;;;;;6.23;100.00;97537.69;5051335;28;20082;-85
2022/03/13 05:05:41;;;;;;;0.60;0.60;;;;;;;6.20;100.00;97530.94;5067691;28;20051;-85
2022/03/13 05:08:14;;;;;;;0.90;0.85;;;;;;;6.25;100.00;97554.28;5060995;28;20028;-84
2022/03/13 05:10:40;;;;;;;0.50;0.50;;;;;;;6.25;100.00;97560.44;5065717;28;20033;-82
2022/03/13 05:13:11;;;;;;;0.60;0.60;;;;;;;6.25;100.00;97568.44;5049245;28;20029;-85
2022/03/13 05:15:37;;;;;;;0.88;0.70;;;;;;;6.26;100.00;97566.56;5078929;28;20049;-84
2022/03/13 05:18:03;;;;;;;0.50;0.50;;;;;;;6.26;100.00;97572.72;5049989;28;20466;-84
2022/03/13 05:20:30;;;;;;;0.40;0.40;;;;;;;6.24;100.00;97582.00;5049304;28;20051;-85
2022/03/13 05:22:55;;;;;;;0.50;0.50;;;;;;;6.25;100.00;97572.97;5060002;28;20443;-85
2022/03/13 05:25:24;;;;;;;0.55;0.55;;;;;;;6.20;100.00;97600.31;5044182;28;20048;-82
2022/03/13 05:27:51;;;;;;;1.77;0.70;;;;;;;6.11;100.00;97602.47;5034112;28;20462;-85
2022/03/13 05:30:20;;;;;;;0.55;0.55;;;;;;;6.08;100.00;97600.25;5048707;28;20079;-85
2022/03/13 05:32:49;;;;;;;0.50;0.50;;;;;;;6.05;100.00;97619.38;5047786;28;20491;-85
2022/03/13 05:35:15;;;;;;;0.50;0.50;;;;;;;6.01;100.00;97626.19;5049130;28;20024;-86
2022/03/13 05:37:41;;;;;;;0.57;0.50;;;;;;;6.02;100.00;97641.16;5065336;28;20040;-87
2022/03/13 05:40:08;;;;;;;0.40;0.40;;;;;;;5.93;100.00;97637.97;5065407;28;20020;-85
2022/03/13 05:42:33;;;;;;;0.40;0.40;;;;;;;5.93;100.00;97645.13;5060953;28;20028;-87
2022/03/13 05:44:59;;;;;;;0.45;0.45;;;;;;;5.97;100.00;97672.19;5030462;28;20033;-86
2022/03/13 05:47:25;;;;;;;0.50;0.50;;;;;;;5.89;100.00;97654.59;5066200;28;20103;-88
2022/03/13 05:49:50;;;;;;;0.50;0.50;;;;;;;5.94;100.00;97681.47;5066366;28;20041;-85
2022/03/13 05:52:16;;;;;;;0.47;0.47;;;;;;;5.98;100.00;97684.47;5031026;28;20474;-85
2022/03/13 05:54:42;;;;;;;0.85;0.70;;;;;;;5.97;100.00;97691.69;5046281;28;20025;-86
2022/03/13 05:57:10;;;;;;;0.85;0.85;;;;;;;5.99;100.00;97710.94;5033867;28;20494;-87
2022/03/13 05:59:38;;;;;;;0.60;0.60;;;;;;;5.97;100.00;97718.34;5063264;28;20033;-85
2022/03/13 06:02:05;;;;;;;0.50;0.50;;;;;;;5.81;100.00;97709.03;5048684;28;20032;-85
2022/03/13 06:04:39;;;;;;;0.40;0.40;;;;;;;5.94;100.00;97748.13;5065832;28;20037;-84
2022/03/13 06:07:05;;;;;;;0.50;0.50;;;;;;;5.94;100.00;97750.78;5035350;28;20091;-87
2022/03/13 06:09:34;;;;;;;1.95;0.57;;;;;;;5.91;100.00;97767.19;5032837;28;20439;-84
2022/03/13 06:11:59;;;;;;;0.50;0.50;;;;;;;5.70;100.00;97774.56;5061054;28;20036;-85
2022/03/13 06:14:26;;;;;;;0.50;0.50;;;;;;;5.63;100.00;97792.44;5064285;28;20461;-85
2022/03/13 06:16:52;;;;;;;0.50;0.50;;;;;;;5.54;100.00;97817.75;5044729;28;20087;-86
2022/03/13 06:19:18;;;;;;;0.50;0.50;;;;;;;5.42;100.00;97832.78;5040465;28;20033;-87
2022/03/13 06:21:44;;;;;;;1.75;1.65;;;;;;;5.36;100.00;97849.63;5038553;28;20039;-88
2022/03/13 06:24:10;;;;;;;0.40;0.40;;;;;;;5.22;100.00;97843.56;5066663;28;20119;-87
2022/03/13 06:26:36;;;;;;;0.60;0.60;;;;;;;5.24;100.00;97868.13;5048286;28;20055;-84
2022/03/13 06:29:02;;;;;;;0.47;0.47;;;;;;;5.22;100.00;97872.84;5041583;28;20025;-86
2022/03/13 06:31:28;;;;;;;0.50;0.50;;;;;;;5.18;100.00;97880.44;5050116;28;20359;-87
2022/03/13 06:33:54;;;;;;;0.50;0.50;;;;;;;5.14;100.00;97891.75;5062724;28;20535;-86
2022/03/13 06:36:22;;;;;;;0.50;0.50;;;;;;;5.10;100.00;97899.31;5067328;28;20461;-86
2022/03/13 06:38:48;;;;;;;0.68;0.68;;;;;;;5.13;100.00;97919.38;5063603;28;20462;-85
2022/03/13 06:41:17;;;;;;;1.85;0.60;;;;;;;5.07;100.00;97921.06;5051603;28;20133;-87
2022/03/13 06:43:42;;;;;;;1.35;0.80;;;;;;;5.06;100.00;97941.53;5051323;28;20127;-86
2022/03/13 06:46:08;;;;;;;0.45;0.45;;;;;;;5.07;100.00;97953.00;5050546;28;20174;-88
2022/03/13 06:48:34;;;;;;;0.57;0.50;;;;;;;5.05;100.00;97966.56;5051943;28;20055;-87
2022/03/13 06:51:00;;;;;;;0.40;0.40;;;;;;;5.07;100.00;97980.44;5049388;28;20381;-86
2022/03/13 06:53:29;;;;;;;0.50;0.50;;;;;;;5.09;100.00;97974.94;5050775;28;20064;-88
2022/03/13 06:55:54;;;;;;;0.50;0.50;;;;;;;5.02;100.00;97966.13;5032801;28;20036;-83
2022/03/13 06:58:20;;;;;;;0.50;0.50;;;;;;;5.17;100.00;98003.19;5068340;28;20077;-87
2022/03/13 07:00:48;;;;;;;0.50;0.50;;;;;;;4.94;100.00;97964.50;5046809;28;20072;-86
2022/03/13 07:03:13;;;;;;;4.50;0.80;;;;;;;5.21;100.00;98018.56;5048516;28;20029;-84
2022/03/13 07:05:40;;;;;;;1.75;0.80;;;;;;;5.20;100.00;98016.09;5066650;28;20040;-86
2022/03/13 07:08:06;;;;;;;0.50;0.50;;;;;;;5.23;100.00;98040.47;5074945;28;20028;-84
2022/03/13 07:10:32;;;;;;;4.85;0.98;;;;;;;5.25;100.00;98041.06;5035938;28;20040;-86
2022/03/13 07:12:59;;;;;;;0.50;0.50;;;;;;;5.29;100.00;98052.13;5050947;28;20075;-85
2022/03/13 07:15:26;;;;;;;1.38;0.50;;;;;;;5.30;100.00;98051.13;5064556;28;20509;-84
2022/03/13 07:17:53;;;;;;;0.40;0.40;;;;;;;5.31;100.00;98049.25;5066148;28;20039;-85
2022/03/13 07:20:18;;;;;;;0.50;0.50;;;;;;;5.38;100.00;98077.53;5060277;28;20498;-84
2022/03/13 07:22:45;;;;;;;0.70;0.70;;;;;;;5.46;100.00;98090.63;5047041;28;20036;-85
2022/03/13 07:25:11;;;;;;;0.93;0.60;;;;;;;5.49;100.00;98095.53;5066857;28;20024;-88
2022/03/13 07:27:38;;;;;;;0.50;0.50;;;;;;;5.55;100.00;98109.88;5030454;28;20045;-84
2022/03/13 07:30:06;;;;;;;0.82;0.55;;;;;;;5.57;100.00;98117.69;5047466;28;20187;-86
2022/03/13 07:32:31;;;;;;;0.40;0.40;;;;;;;5.55;100.00;98123.19;5043447;28;20044;-85
2022/03/13 07:34:57;;;;;;;2.17;0.90;;;;;;;5.57;100.00;98129.16;5064685;28;20040;-83
2022/03/13 07:37:23;;;;;;;0.50;0.50;;;;;;;5.69;100.00;98159.50;5068721;28;20025;-85
2022/03/13 07:39:48;;;;;;;0.50;0.50;;;;;;;5.66;100.00;98159.06;5069247;28;20058;-86
2022/03/13 07:42:16;;;;;;;0.50;0.50;;;;;;;5.68;100.00;98167.69;5051010;28;20088;-85
2022/03/13 07:44:42;;;;;;;0.60;0.60;;;;;;;5.69;100.00;98159.50;5062988;28;20037;-85
2022/03/13 07:47:07;;;;;;;0.65;0.60;;;;;;;5.86;100.00;98196.38;5045533;28;20041;-86
2022/03/13 07:49:33;;;;;;;0.70;0.70;;;;;;;5.85;100.00;98202.75;5033404;28;20043;-84
2022/03/13 07:51:59;;;;;;;0.63;0.63;;;;;;;5.80;100.00;98200.69;5060976;28;20023;-85
2022/03/13 07:54:24;;;;;;;2.83;0.80;;;;;;;5.80;100.00;98206.03;5069197;28;20040;-85
2022/03/13 07:56:50;;;;;;;0.50;0.50;;;;;;;5.79;100.00;98225.69;5033102;28;20028;-86
2022/03/13 07:59:15;;;;;;;0.93;0.82;;;;;;;5.88;100.00;98243.13;5065684;28;20481;-84
2022/03/13 08:01:41;;;;;;;0.50;0.50;;;;;;;5.87;100.00;98227.34;5030906;28;20063;-87
2022/03/13 08:04:06;;;;;;;0.50;0.50;;;;;;;6.39;100.00;98254.97;5061386;28;20021;-85
2022/03/13 08:06:36;;;;;;;0.50;0.50;;;;;;;6.88;100.00;98260.72;5060603;28;20362;-84
2022/03/13 08:09:03;;;;;;;0.50;0.50;;;;;;;7.03;100.00;98266.59;5047351;28;20028;-85
2022/03/13 08:11:32;;;;;;;0.50;0.50;;;;;;;6.90;100.00;98282.69;5062333;28;20032;-86
2022/03/13 08:13:57;;;;;;;1.80;0.85;;;;;;;6.73;100.00;98274.34;5033572;28;20461;-85
2022/03/13 08:16:24;;;;;;;0.50;0.50;;;;;;;6.82;100.00;98281.09;5048072;28;20028;-86
2022/03/13 08:18:50;;;;;;;0.50;0.50;;;;;;;6.78;100.00;98294.06;5031478;28;20085;-86
2022/03/13 08:21:16;;;;;;;0.60;0.55;;;;;;;6.90;100.00;98286.19;5065980;28;20028;-88
2022/03/13 08:23:43;;;;;;;1.63;1.20;;;;;;;8.05;100.00;98303.94;5056236;28;20028;-85
2022/03/13 08:26:09;;;;;;;0.50;0.50;;;;;;;7.88;100.00;98320.50;5028120;28;20116;-87
2022/03/13 08:28:35;;;;;;;2.15;1.08;;;;;;;9.42;100.00;98323.22;5052506;28;20038;-87
2022/03/13 08:31:01;;;;;;;2.55;1.20;;;;;;;10.26;100.00;98327.66;5062438;28;20024;-85
2022/03/13 08:33:26;;;;;;;0.70;0.70;;;;;;;10.40;100.00;98322.91;5026443;28;20461;-84
2022/03/13 08:35:52;;;;;;;1.10;0.80;;;;;;;10.33;99.44;98337.28;5034630;28;20055;-85
2022/03/13 08:38:19;;;;;;;0.63;0.63;;;;;;;10.20;99.79;98345.53;5067451;28;20037;-88
2022/03/13 08:40:46;;;;;;;0.52;0.52;;;;;;;9.27;100.00;98351.47;5070962;28;20036;-86
2022/03/13 08:43:12;;;;;;;3.67;1.00;;;;;;;8.52;100.00;98371.25;5035774;28;20033;-86
2022/03/13 08:45:38;;;;;;;0.70;0.70;;;;;;;10.39;100.00;98373.13;5067703;28;20086;-86
2022/03/13 08:48:04;;;;;;;1.25;0.70;;;;;;;9.31;100.00;98382.97;5032729;28;20040;-86
2022/03/13 08:50:30;;;;;;;0.47;0.47;;;;;;;8.64;100.00;98382.91;5034410;28;20032;-86
2022/03/13 08:52:56;;;;;;;1.50;0.80;;;;;;;9.10;100.00;98394.97;5067970;28;20033;-84
2022/03/13 08:55:22;;;;;;;6.30;0.85;;;;;;;10.23;100.00;98398.78;5055522;28;20036;-84
2022/03/13 08:57:48;;;;;;;0.60;0.60;;;;;;;9.98;100.00;98411.59;5051699;28;20461;-83
2022/03/13 09:00:15;;;;;;;0.50;0.50;;;;;;;9.10;100.00;98423.63;5063529;28;20039;-84
2022/03/13 09:02:42;;;;;;;0.60;0.60;;;;;;;8.53;100.00;98423.81;5049077;28;20024;-84
2022/03/13 09:05:08;;;;;;;2.15;0.70;;;;;;;8.35;100.00;98445.97;5063763;28;20107;-83
2022/03/13 09:07:34;;;;;;;0.70;0.70;;;;;;;8.10;100.00;98440.59;5064820;28;20020;-85
2022/03/13 09:10:02;;;;;;;0.50;0.50;;;;;;;8.01;100.00;98455.25;5035573;28;20028;-85
2022/03/13 09:12:31;;;;;;;1.10;0.70;;;;;;;7.88;100.00;98462.31;5065858;28;20488;-83
2022/03/13 09:14:58;;;;;;;0.50;0.50;;;;;;;8.01;100.00;98461.44;5065815;28;20078;-85
2022/03/13 09:17:23;;;;;;;0.50;0.50;;;;;;;8.51;100.00;98477.59;5029952;28;20099;-85
2022/03/13 09:19:49;;;;;;;0.60;0.60;;;;;;;8.61;100.00;98473.59;5034332;28;20369;-86
2022/03/13 09:22:17;;;;;;;0.50;0.50;;;;;;;8.82;100.00;98494.66;5033381;28;20052;-84
2022/03/13 09:24:44;;;;;;;0.50;0.50;;;;;;;8.57;100.00;98497.31;5034389;28;20037;-83
2022/03/13 09:27:09;;;;;;;1.38;1.38;;;;;;;8.56;100.00;98503.72;5052655;28;20040;-87
2022/03/13 09:29:35;;;;;;;0.60;0.60;;;;;;;9.68;100.00;98509.84;5046379;28;20686;-84
2022/03/13 09:32:01;;;;;;;0.55;0.55;;;;;;;10.71;100.00;98515.22;5067018;28;20120;-85
2022/03/13 09:34:27;;;;;;;0.50;0.50;;;;;;;10.09;100.00;98510.94;5062483;28;20032;-86
2022/03/13 09:36:52;;;;;;;0.47;0.47;;;;;;;9.75;100.00;98531.22;5051485;28;20074;-85
2022/03/13 09:39:18;;;;;;;0.40;0.40;;;;;;;8.94;100.00;98525.03;5045664;28;20489;-84
2022/03/13 09:41:44;;;;;;;0.50;0.50;;;;;;;8.35;100.00;98534.31;5035019;28;20051;-82
2022/03/13 09:44:09;;;;;;;1.23;0.60;;;;;;;7.95;100.00;98531.06;5050918;28;20035;-85
2022/03/13 09:46:37;;;;;;;5.05;1.25;;;;;;;7.94;100.00;98543.63;5032519;28;20036;-83
2022/03/13 09:49:03;;;;;;;0.40;0.40;;;;;;;7.85;100.00;98556.41;5046293;28;20037;-84
2022/03/13 09:51:28;;;;;;;0.40;0.40;;;;;;;7.72;100.00;98564.47;5034129;28;20034;-85
2022/03/13 09:53:54;;;;;;;0.50;0.50;;;;;;;7.80;100.00;98579.47;5051360;28;20033;-84
2022/03/13 09:56:19;;;;;;;0.80;0.65;;;;;;;7.81;100.00;98557.88;5051060;28;20043;-85
2022/03/13 09:58:46;;;;;;;0.55;0.55;;;;;;;8.15;100.00;98577.28;5048814;28;20051;-84
2022/03/13 10:01:12;;;;;;;0.70;0.70;;;;;;;9.14;100.00;98583.03;5049631;28;20131;-85
2022/03/13 10:03:41;;;;;;;2.25;0.73;;;;;;;10.83;100.00;98558.28;5035325;28;20123;-84
2022/03/13 10:06:06;;;;;;;0.80;0.80;;;;;;;12.72;93.24;98594.59;5054127;28;20043;-84
2022/03/13 10:08:32;;;;;;;0.50;0.50;;;;;;;14.43;85.12;98601.13;5068920;28;20048;-83
2022/03/13 10:11:04;;;;;;;0.60;0.60;;;;;;;13.55;88.56;98602.97;5072404;28;20056;-83
2022/03/13 10:13:45;;;;;;;1.08;0.77;;;;;;;12.80;89.84;98617.66;5070192;28;20039;-83
2022/03/13 10:16:19;;;;;;;0.60;0.60;;;;;;;12.54;91.75;98617.16;5056552;28;20033;-83
2022/03/13 10:18:46;;;;;;;0.90;0.90;;;;;;;13.20;89.89;98612.97;5056015;28;20085;-82
2022/03/13 10:21:14;;;;;;;3.05;0.70;;;;;;;13.18;87.45;98639.38;5056226;28;20127;-81
2022/03/13 10:23:40;;;;;;;0.50;0.50;;;;;;;11.37;94.16;98643.22;5072510;28;20488;-82
2022/03/13 10:26:06;;;;;;;0.50;0.50;;;;;;;10.42;98.83;98638.63;5055684;28;20028;-82
2022/03/13 10:28:37;;;;;;;0.70;0.70;;;;;;;11.49;96.35;98658.56;5055910;28;20036;-83
2022/03/13 10:31:02;;;;;;;1.15;1.13;;;;;;;14.58;83.84;98673.53;5055765;28;20059;-79
2022/03/13 10:33:51;;;;;;;0.90;0.90;;;;;;;15.24;78.98;98669.84;5078069;28;20405;-79
2022/03/13 10:36:19;;;;;;;1.00;0.50;;;;;;;12.95;87.43;98682.66;5074918;28;20389;-81
2022/03/13 10:38:47;;;;;;;2.00;0.95;;;;;;;11.67;92.88;98693.47;5048238;28;20199;-81
2022/03/13 10:41:15;;;;;;;0.70;0.70;;;;;;;11.63;94.97;98697.66;5038843;28;20047;-79
2022/03/13 10:43:58;;;;;;;0.40;0.40;;;;;;;11.03;96.87;98697.75;5069481;28;20489;-80
2022/03/13 10:46:26;;;;;;;4.70;1.30;;;;;;;9.91;99.75;98717.69;5064207;28;20559;-81
2022/03/13 10:48:53;;;;;;;0.50;0.50;;;;;;;9.74;100.00;98721.97;5054723;28;20062;-79
2022/03/13 10:51:35;;;;;;;0.50;0.50;;;;;;;9.97;100.00;98740.13;5044790;28;20123;-79
2022/03/13 10:54:02;;;;;;;0.43;0.43;;;;;;;9.05;100.00;98740.66;5053042;28;20047;-79
2022/03/13 10:56:28;;;;;;;0.90;0.75;;;;;;;8.57;100.00;98735.72;5050574;28;20356;-81
2022/03/13 10:58:54;;;;;;;1.00;1.00;;;;;;;9.18;100.00;98732.53;5036628;28;20107;-79
2022/03/13 11:01:22;;;;;;;1.00;1.00;;;;;;;14.10;84.49;98750.72;5038194;28;20141;-79
2022/03/13 11:03:56;;;;;;;4.65;2.00;;;;;;;17.10;71.37;98731.16;5053642;28;20355;-79
2022/03/13 11:06:24;;;;;;;0.60;0.60;;;;;;;17.74;68.52;98767.91;5048862;28;20049;-79
2022/03/13 11:08:55;;;;;;;7.45;1.95;;;;;;;14.54;76.56;98785.97;5051420;28;20033;-81
2022/03/13 11:11:27;;;;;;;2.15;1.00;;;;;;;11.38;88.86;98798.25;5038283;28;20040;-81
2022/03/13 11:13:55;;;;;;;1.25;1.15;;;;;;;10.23;97.01;98806.19;5064654;28;20072;-80
2022/03/13 11:16:23;;;;;;;1.55;1.35;;;;;;;10.71;97.44;98821.66;5065409;28;20508;-81
2022/03/13 11:18:51;;;;;;;1.08;0.95;;;;;;;11.76;93.07;98809.69;5070375;28;20081;-80
2022/03/13 11:21:21;;;;;;;0.50;0.50;;;;;;;11.29;94.53;98825.69;5067092;28;20040;-81
2022/03/13 11:23:49;;;;;;;0.73;0.60;;;;;;;10.70;98.06;98820.81;5047259;28;20491;-82
2022/03/13 11:26:17;;;;;;;0.57;0.57;;;;;;;10.87;97.62;98839.84;5036702;28;20524;-80
2022/03/13 11:28:47;;;;;;;0.80;0.80;;;;;;;12.25;93.00;98838.13;5058655;28;20035;-80
2022/03/13 11:31:32;;;;;;;1.00;1.00;;;;;;;15.23;81.19;98846.91;5037262;28;20420;-79
2022/03/13 11:34:19;;;;;;;0.50;0.50;;;;;;;13.00;86.85;98841.91;5048261;28;20036;-79